createdAt,value
2019-03-27T00:00:21.551Z,2.04
2019-03-27T00:01:21.485Z,2.06
2019-03-27T00:02:21.493Z,2.1
2019-03-27T00:03:21.453Z,2.12
2019-03-27T00:04:21.468Z,2.15
2019-03-27T00:05:21.506Z,2.12
2019-03-27T00:06:21.449Z,2.1
2019-03-27T00:07:21.465Z,2.13
2019-03-27T00:08:21.455Z,2.16
2019-03-27T00:09:21.489Z,2.18
2019-03-27T00:10:21.536Z,2.19
2019-03-27T00:11:21.439Z,2.16
2019-03-27T00:12:21.496Z,2.19
2019-03-27T00:13:21.451Z,2.17
2019-03-27T00:14:21.436Z,2.15
2019-03-27T00:15:21.464Z,2.04
2019-03-27T00:16:21.499Z,1.94
2019-03-27T00:17:21.447Z,1.95
2019-03-27T00:18:21.435Z,1.95
2019-03-27T00:19:21.441Z,1.91
2019-03-27T00:20:21.502Z,1.95
2019-03-27T00:21:21.499Z,1.91
2019-03-27T00:22:21.441Z,1.93
2019-03-27T00:23:24.431Z,1.97
2019-03-27T00:24:21.484Z,2.03
2019-03-27T00:25:21.407Z,2.01
2019-03-27T00:26:21.442Z,1.96
2019-03-27T00:27:21.441Z,1.92
2019-03-27T00:28:21.456Z,1.92
2019-03-27T00:29:21.494Z,1.88
2019-03-27T00:30:21.412Z,1.88
2019-03-27T00:31:22.078Z,1.92
2019-03-27T00:32:21.446Z,1.96
2019-03-27T00:33:21.418Z,1.95
2019-03-27T00:34:21.472Z,1.92
2019-03-27T00:35:21.451Z,1.92
2019-03-27T00:36:21.430Z,1.85
2019-03-27T00:37:21.423Z,1.88
2019-03-27T00:38:21.391Z,1.84
2019-03-27T00:39:21.455Z,1.82
2019-03-27T00:40:21.432Z,1.94
2019-03-27T00:41:21.575Z,1.84
2019-03-27T00:42:21.500Z,1.85
2019-03-27T00:43:22.532Z,1.85
2019-03-27T00:44:21.394Z,1.85
2019-03-27T00:45:27.442Z,1.81
2019-03-27T00:46:21.379Z,1.83
2019-03-27T00:47:21.384Z,1.82
2019-03-27T00:48:21.376Z,1.84
2019-03-27T00:49:21.424Z,1.81
2019-03-27T00:50:21.470Z,1.81
2019-03-27T00:51:21.456Z,1.86
2019-03-27T00:52:21.565Z,1.83
2019-03-27T00:53:22.772Z,1.85
2019-03-27T00:54:21.420Z,1.88
2019-03-27T00:55:21.404Z,1.89
2019-03-27T00:56:21.363Z,1.97
2019-03-27T00:57:21.418Z,1.93
2019-03-27T00:58:21.413Z,1.99
2019-03-27T00:59:21.403Z,2.11
2019-03-27T01:00:21.794Z,2.08
2019-03-27T01:01:21.418Z,2.07
2019-03-27T01:02:21.368Z,2.12
2019-03-27T01:03:21.386Z,2.06
2019-03-27T01:04:21.442Z,2.21
2019-03-27T01:05:21.387Z,2.21
2019-03-27T01:06:21.371Z,2.23
2019-03-27T01:07:22.485Z,2.26
2019-03-27T01:08:21.409Z,2.2
2019-03-27T01:09:21.371Z,2.24
2019-03-27T01:10:21.499Z,2.15
2019-03-27T01:11:21.354Z,2.18
2019-03-27T01:12:21.380Z,2.14
2019-03-27T01:13:21.341Z,2.1
2019-03-27T01:14:21.804Z,2.12
2019-03-27T01:15:21.365Z,2.08
2019-03-27T01:16:21.343Z,2.09
2019-03-27T01:17:21.353Z,2.07
2019-03-27T01:18:21.363Z,2.09
2019-03-27T01:19:21.406Z,2.03
2019-03-27T01:20:21.365Z,2.01
2019-03-27T01:21:21.370Z,2.07
2019-03-27T01:22:21.413Z,2.02
2019-03-27T01:23:21.412Z,2.02
2019-03-27T01:24:21.345Z,2.02
2019-03-27T01:25:21.360Z,2.04
2019-03-27T01:26:21.387Z,2.12
2019-03-27T01:27:21.359Z,2.05
2019-03-27T01:28:21.329Z,2.32
2019-03-27T01:29:21.306Z,2.35
2019-03-27T01:30:21.366Z,2.39
2019-03-27T01:31:21.312Z,2.39
2019-03-27T01:32:21.393Z,2.41
2019-03-27T01:33:21.376Z,2.39
2019-03-27T01:34:21.318Z,2.42
2019-03-27T01:35:21.402Z,2.39
2019-03-27T01:36:21.352Z,2.42
2019-03-27T01:37:21.320Z,2.32
2019-03-27T01:38:21.320Z,2.37
2019-03-27T01:39:21.305Z,2.42
2019-03-27T01:40:21.431Z,2.41
2019-03-27T01:41:21.348Z,2.43
2019-03-27T01:42:21.452Z,2.43
2019-03-27T01:43:21.389Z,2.4
2019-03-27T01:44:21.376Z,2.44
2019-03-27T01:45:21.334Z,2.48
2019-03-27T01:46:21.316Z,2.44
2019-03-27T01:47:21.329Z,2.41
2019-03-27T01:48:21.345Z,2.41
2019-03-27T01:49:21.310Z,2.36
2019-03-27T01:50:21.337Z,2.35
2019-03-27T01:51:21.331Z,2.28
2019-03-27T01:52:21.438Z,2.23
2019-03-27T01:53:21.346Z,2.19
2019-03-27T01:54:21.289Z,2.17
2019-03-27T01:55:21.365Z,2.18
2019-03-27T01:56:21.315Z,2.22
2019-03-27T01:57:21.812Z,2.15
2019-03-27T01:58:21.685Z,2.18
2019-03-27T01:59:21.277Z,2.14
2019-03-27T02:00:21.295Z,1.98
2019-03-27T02:01:21.330Z,2.04
2019-03-27T02:02:21.455Z,2.04
2019-03-27T02:03:21.337Z,2.06
2019-03-27T02:04:21.319Z,2.05
2019-03-27T02:05:21.268Z,2.04
2019-03-27T02:06:21.310Z,1.95
2019-03-27T02:07:21.302Z,1.97
2019-03-27T02:08:21.272Z,2.04
2019-03-27T02:09:21.288Z,2.01
2019-03-27T02:10:22.463Z,1.92
2019-03-27T02:11:21.305Z,1.98
2019-03-27T02:12:21.273Z,1.97
2019-03-27T02:13:21.366Z,2.01
2019-03-27T02:14:21.277Z,1.95
2019-03-27T02:15:21.292Z,1.9
2019-03-27T02:16:21.317Z,1.88
2019-03-27T02:17:21.242Z,1.83
2019-03-27T02:18:21.315Z,1.94
2019-03-27T02:19:21.398Z,1.94
2019-03-27T02:20:21.273Z,1.96
2019-03-27T02:21:21.281Z,1.89
2019-03-27T02:22:21.247Z,1.93
2019-03-27T02:23:21.273Z,1.99
2019-03-27T02:24:21.249Z,2.02
2019-03-27T02:25:21.256Z,2.09
2019-03-27T02:26:21.402Z,2.02
2019-03-27T02:27:21.295Z,1.96
2019-03-27T02:28:21.264Z,2.08
2019-03-27T02:29:21.266Z,2.11
2019-03-27T02:30:21.297Z,2.15
2019-03-27T02:31:21.296Z,2.11
2019-03-27T02:32:21.610Z,2.14
2019-03-27T02:33:21.410Z,2.12
2019-03-27T02:34:21.314Z,2.12
2019-03-27T02:35:21.262Z,2.11
2019-03-27T02:36:21.244Z,2.11
2019-03-27T02:37:21.231Z,2.12
2019-03-27T02:38:21.366Z,2.11
2019-03-27T02:39:21.250Z,2.1
2019-03-27T02:40:22.022Z,2.06
2019-03-27T02:41:21.387Z,2.04
2019-03-27T02:42:21.224Z,2.07
2019-03-27T02:43:21.298Z,2.05
2019-03-27T02:44:21.406Z,1.93
2019-03-27T02:45:21.238Z,1.86
2019-03-27T02:46:25.949Z,1.99
2019-03-27T02:47:21.216Z,1.95
2019-03-27T02:48:21.242Z,1.97
2019-03-27T02:49:21.314Z,2.01
2019-03-27T02:50:21.268Z,1.98
2019-03-27T02:51:21.335Z,1.97
2019-03-27T02:52:21.276Z,1.95
2019-03-27T02:53:21.285Z,1.89
2019-03-27T02:54:21.263Z,1.83
2019-03-27T02:55:21.229Z,1.85
2019-03-27T02:56:21.244Z,1.81
2019-03-27T02:57:21.210Z,1.83
2019-03-27T02:58:21.188Z,1.78
2019-03-27T02:59:21.212Z,1.8
2019-03-27T03:00:21.244Z,1.86
2019-03-27T03:01:21.220Z,1.91
2019-03-27T03:02:21.202Z,1.94
2019-03-27T03:03:21.283Z,1.92
2019-03-27T03:04:21.217Z,1.91
2019-03-27T03:05:21.211Z,1.89
2019-03-27T03:06:21.229Z,1.91
2019-03-27T03:07:21.226Z,1.88
2019-03-27T03:08:21.404Z,1.91
2019-03-27T03:09:21.173Z,2.01
2019-03-27T03:10:21.229Z,1.92
2019-03-27T03:11:21.290Z,2.05
2019-03-27T03:12:21.342Z,1.95
2019-03-27T03:13:21.218Z,2.05
2019-03-27T03:14:21.195Z,2.01
2019-03-27T03:15:21.204Z,1.94
2019-03-27T03:16:21.227Z,1.94
2019-03-27T03:17:21.208Z,2.02
2019-03-27T03:18:21.318Z,2.11
2019-03-27T03:19:21.196Z,2.15
2019-03-27T03:20:21.816Z,2.15
2019-03-27T03:21:21.356Z,2.14
2019-03-27T03:22:21.202Z,2.14
2019-03-27T03:23:21.838Z,2.16
2019-03-27T03:24:21.236Z,2.19
2019-03-27T03:25:21.223Z,2.15
2019-03-27T03:26:21.198Z,2.13
2019-03-27T03:27:21.194Z,2.18
2019-03-27T03:28:21.470Z,2.17
2019-03-27T03:29:21.195Z,2.18
2019-03-27T03:30:21.187Z,2.13
2019-03-27T03:31:21.190Z,2.12
2019-03-27T03:32:21.241Z,2.15
2019-03-27T03:33:21.234Z,2.19
2019-03-27T03:34:21.245Z,2.15
2019-03-27T03:35:21.169Z,2.11
2019-03-27T03:36:21.170Z,2.13
2019-03-27T03:37:21.317Z,2.17
2019-03-27T03:38:21.203Z,2.16
2019-03-27T03:39:21.252Z,2.16
2019-03-27T03:40:21.152Z,2.17
2019-03-27T03:41:21.144Z,2.22
2019-03-27T03:42:21.143Z,2.22
2019-03-27T03:43:21.183Z,2.25
2019-03-27T03:44:21.172Z,2.25
2019-03-27T03:45:21.385Z,2.23
2019-03-27T03:46:21.900Z,2.24
2019-03-27T03:47:21.164Z,2.23
2019-03-27T03:48:21.186Z,2.25
2019-03-27T03:49:21.188Z,2.24
2019-03-27T03:50:21.152Z,2.22
2019-03-27T03:51:21.133Z,2.18
2019-03-27T03:52:21.132Z,2.16
2019-03-27T03:53:21.113Z,2.15
2019-03-27T03:54:21.368Z,2.2
2019-03-27T03:55:23.478Z,2.14
2019-03-27T03:56:21.173Z,2.09
2019-03-27T03:57:21.183Z,2.06
2019-03-27T03:58:21.099Z,2.13
2019-03-27T03:59:21.204Z,2.22
2019-03-27T04:00:21.311Z,2.17
2019-03-27T04:01:21.275Z,2.25
2019-03-27T04:02:21.188Z,2.25
2019-03-27T04:03:21.169Z,2.25
2019-03-27T04:04:21.123Z,2.19
2019-03-27T04:05:21.091Z,2.27
2019-03-27T04:06:21.132Z,2.22
2019-03-27T04:07:21.158Z,2.28
2019-03-27T04:08:21.138Z,2.32
2019-03-27T04:09:21.204Z,2.31
2019-03-27T04:10:21.118Z,2.37
2019-03-27T04:11:21.131Z,2.36
2019-03-27T04:12:21.140Z,2.39
2019-03-27T04:13:21.110Z,2.37
2019-03-27T04:14:21.109Z,2.39
2019-03-27T04:15:21.147Z,2.36
2019-03-27T04:16:21.116Z,2.31
2019-03-27T04:17:21.142Z,2.36
2019-03-27T04:18:21.081Z,2.35
2019-03-27T04:19:21.208Z,2.34
2019-03-27T04:20:21.126Z,2.32
2019-03-27T04:21:21.128Z,2.3
2019-03-27T04:22:21.093Z,2.3
2019-03-27T04:23:21.118Z,2.34
2019-03-27T04:24:21.082Z,2.32
2019-03-27T04:25:21.110Z,2.33
2019-03-27T04:26:21.088Z,2.37
2019-03-27T04:27:21.098Z,2.35
2019-03-27T04:28:21.253Z,2.32
2019-03-27T04:29:21.094Z,2.26
2019-03-27T04:30:21.070Z,2.25
2019-03-27T04:31:21.134Z,2.23
2019-03-27T04:32:21.152Z,2.27
2019-03-27T04:33:21.089Z,2.24
2019-03-27T04:34:21.081Z,2.2
2019-03-27T04:35:21.172Z,2.16
2019-03-27T04:36:21.158Z,2.12
2019-03-27T04:37:21.205Z,2.11
2019-03-27T04:38:21.039Z,2.08
2019-03-27T04:39:21.102Z,2.15
2019-03-27T04:40:21.060Z,2.14
2019-03-27T04:41:21.101Z,2.3
2019-03-27T04:42:21.062Z,2.28
2019-03-27T04:43:21.077Z,2.27
2019-03-27T04:44:21.055Z,2.3
2019-03-27T04:45:21.300Z,2.28
2019-03-27T04:46:21.075Z,2.33
2019-03-27T04:47:32.931Z,2.31
2019-03-27T04:48:21.182Z,2.33
2019-03-27T04:49:21.065Z,2.25
2019-03-27T04:50:21.336Z,2.28
2019-03-27T04:51:21.081Z,2.31
2019-03-27T04:52:21.101Z,2.31
2019-03-27T04:53:21.063Z,2.27
2019-03-27T04:54:21.072Z,2.31
2019-03-27T04:55:21.069Z,2.3
2019-03-27T04:56:21.105Z,2.29
2019-03-27T04:57:21.102Z,2.22
2019-03-27T04:58:21.909Z,2.21
2019-03-27T04:59:21.022Z,2.17
2019-03-27T05:00:21.019Z,2.25
2019-03-27T05:01:21.094Z,2.23
2019-03-27T05:02:21.056Z,2.29
2019-03-27T05:03:21.024Z,2.29
2019-03-27T05:04:21.079Z,2.26
2019-03-27T05:05:21.024Z,2.27
2019-03-27T05:06:21.045Z,2.23
2019-03-27T05:07:21.054Z,2.27
2019-03-27T05:08:22.480Z,2.16
2019-03-27T05:09:21.037Z,2.15
2019-03-27T05:10:21.010Z,2.13
2019-03-27T05:11:21.046Z,2.2
2019-03-27T05:12:21.010Z,2.17
2019-03-27T05:13:21.046Z,2.23
2019-03-27T05:14:21.079Z,2.2
2019-03-27T05:15:21.028Z,2.23
2019-03-27T05:16:21.156Z,2.26
2019-03-27T05:17:21.114Z,2.2
2019-03-27T05:18:21.253Z,2.27
2019-03-27T05:19:21.903Z,2.25
2019-03-27T05:20:21.006Z,2.33
2019-03-27T05:21:20.995Z,2.32
2019-03-27T05:22:21.057Z,2.31
2019-03-27T05:23:21.292Z,2.32
2019-03-27T05:24:21.047Z,2.31
2019-03-27T05:25:21.040Z,2.3
2019-03-27T05:26:21.064Z,2.31
2019-03-27T05:27:21.030Z,2.16
2019-03-27T05:28:21.040Z,2.16
2019-03-27T05:29:20.994Z,2.14
2019-03-27T05:30:20.998Z,2.11
2019-03-27T05:31:20.986Z,2.17
2019-03-27T05:32:23.202Z,2.21
2019-03-27T05:33:20.997Z,2.27
2019-03-27T05:34:22.720Z,2.23
2019-03-27T05:35:21.004Z,2.3
2019-03-27T05:36:20.988Z,2.25
2019-03-27T05:37:20.953Z,2.27
2019-03-27T05:38:20.968Z,2.33
2019-03-27T05:39:20.960Z,2.21
2019-03-27T05:40:20.987Z,2.4
2019-03-27T05:41:21.024Z,2.41
2019-03-27T05:42:21.032Z,2.32
2019-03-27T05:43:21.852Z,2.38
2019-03-27T05:44:20.966Z,2.45
2019-03-27T05:45:20.989Z,2.37
2019-03-27T05:46:20.958Z,2.48
2019-03-27T05:47:20.964Z,2.45
2019-03-27T05:48:20.972Z,2.39
2019-03-27T05:49:21.005Z,2.39
2019-03-27T05:50:21.000Z,2.4
2019-03-27T05:51:20.928Z,2.43
2019-03-27T05:52:20.950Z,2.34
2019-03-27T05:53:21.043Z,2.44
2019-03-27T05:54:20.993Z,2.41
2019-03-27T05:55:21.162Z,2.45
2019-03-27T05:56:21.813Z,2.37
2019-03-27T05:57:20.984Z,2.39
2019-03-27T05:58:21.236Z,2.57
2019-03-27T05:59:20.973Z,2.56
2019-03-27T06:00:20.970Z,2.55
2019-03-27T06:01:20.921Z,2.53
2019-03-27T06:02:21.128Z,2.48
2019-03-27T06:03:21.005Z,2.54
2019-03-27T06:04:20.962Z,2.73
2019-03-27T06:05:20.938Z,2.73
2019-03-27T06:06:20.929Z,2.68
2019-03-27T06:07:20.971Z,2.59
2019-03-27T06:08:20.927Z,2.52
2019-03-27T06:09:21.984Z,2.52
2019-03-27T06:10:20.960Z,2.49
2019-03-27T06:11:20.917Z,2.55
2019-03-27T06:12:20.938Z,2.63
2019-03-27T06:13:21.860Z,2.65
2019-03-27T06:14:20.937Z,2.63
2019-03-27T06:15:22.066Z,2.64
2019-03-27T06:16:21.156Z,2.61
2019-03-27T06:17:21.147Z,2.73
2019-03-27T06:18:20.908Z,2.67
2019-03-27T06:19:20.940Z,2.7
2019-03-27T06:20:21.809Z,2.75
2019-03-27T06:21:20.938Z,2.66
2019-03-27T06:22:20.938Z,2.63
2019-03-27T06:23:20.894Z,2.58
2019-03-27T06:24:20.919Z,2.65
2019-03-27T06:25:20.888Z,2.73
2019-03-27T06:26:20.934Z,2.78
2019-03-27T06:27:20.928Z,2.63
2019-03-27T06:28:20.991Z,2.66
2019-03-27T06:29:20.958Z,2.65
2019-03-27T06:30:20.919Z,2.59
2019-03-27T06:31:20.924Z,2.56
2019-03-27T06:32:20.999Z,2.63
2019-03-27T06:33:20.925Z,2.67
2019-03-27T06:34:20.884Z,2.74
2019-03-27T06:35:20.918Z,2.72
2019-03-27T06:36:20.906Z,2.67
2019-03-27T06:37:20.984Z,2.65
2019-03-27T06:38:21.377Z,2.66
2019-03-27T06:39:21.143Z,2.67
2019-03-27T06:40:20.924Z,2.65
2019-03-27T06:41:20.983Z,2.72
2019-03-27T06:42:20.946Z,2.72
2019-03-27T06:43:20.955Z,2.7
2019-03-27T06:44:20.982Z,2.78
2019-03-27T06:45:21.043Z,2.74
2019-03-27T06:46:21.847Z,2.69
2019-03-27T06:47:20.959Z,2.79
2019-03-27T06:48:26.936Z,2.78
2019-03-27T06:49:20.868Z,2.77
2019-03-27T06:50:20.914Z,2.72
2019-03-27T06:51:20.914Z,2.76
2019-03-27T06:52:20.884Z,2.81
2019-03-27T06:53:20.962Z,2.78
2019-03-27T06:54:20.890Z,2.94
2019-03-27T06:55:20.904Z,2.89
2019-03-27T06:56:21.130Z,2.96
2019-03-27T06:57:20.862Z,2.99
2019-03-27T06:58:20.947Z,2.88
2019-03-27T06:59:20.853Z,2.85
2019-03-27T07:00:21.818Z,2.87
2019-03-27T07:01:20.920Z,2.95
2019-03-27T07:02:20.931Z,2.94
2019-03-27T07:03:20.858Z,2.93
2019-03-27T07:04:20.967Z,2.88
2019-03-27T07:05:21.017Z,2.9
2019-03-27T07:06:21.100Z,2.92
2019-03-27T07:07:20.956Z,2.9
2019-03-27T07:08:20.839Z,2.92
2019-03-27T07:09:20.868Z,2.97
2019-03-27T07:10:20.854Z,3
2019-03-27T07:11:20.911Z,2.99
2019-03-27T07:12:21.893Z,2.98
2019-03-27T07:13:20.860Z,2.94
2019-03-27T07:14:21.005Z,2.94
2019-03-27T07:15:20.904Z,2.97
2019-03-27T07:16:20.873Z,2.95
2019-03-27T07:17:21.046Z,2.87
2019-03-27T07:18:20.982Z,2.92
2019-03-27T07:19:20.915Z,2.95
2019-03-27T07:20:20.886Z,2.93
2019-03-27T07:21:21.233Z,2.9
2019-03-27T07:22:20.862Z,2.97
2019-03-27T07:23:20.865Z,3.04
2019-03-27T07:24:21.782Z,3.05
2019-03-27T07:25:20.944Z,3.13
2019-03-27T07:26:20.957Z,2.99
2019-03-27T07:27:20.850Z,2.94
2019-03-27T07:28:20.793Z,3.01
2019-03-27T07:29:20.821Z,2.96
2019-03-27T07:30:21.743Z,3
2019-03-27T07:31:20.779Z,3
2019-03-27T07:32:20.879Z,3
2019-03-27T07:33:20.800Z,3.03
2019-03-27T07:34:20.781Z,3.03
2019-03-27T07:35:20.784Z,2.99
2019-03-27T07:36:20.843Z,2.96
2019-03-27T07:37:20.784Z,3.04
2019-03-27T07:38:20.850Z,3.06
2019-03-27T07:39:20.780Z,3.06
2019-03-27T07:40:20.891Z,3.08
2019-03-27T07:41:20.830Z,3.07
2019-03-27T07:42:20.820Z,3.08
2019-03-27T07:43:20.862Z,3.06
2019-03-27T07:44:20.790Z,3.09
2019-03-27T07:45:20.814Z,3.08
2019-03-27T07:46:20.801Z,3.1
2019-03-27T07:47:20.793Z,3.11
2019-03-27T07:48:20.903Z,3.09
2019-03-27T07:49:20.848Z,3.07
2019-03-27T07:50:20.804Z,3.06
2019-03-27T07:51:20.804Z,3.15
2019-03-27T07:52:20.809Z,3.21
2019-03-27T07:53:22.864Z,3.17
2019-03-27T07:54:20.809Z,3.09
2019-03-27T07:55:20.838Z,3.15
2019-03-27T07:56:20.786Z,3.27
2019-03-27T07:57:20.756Z,3.13
2019-03-27T07:58:20.764Z,3.05
2019-03-27T07:59:20.821Z,3.12
2019-03-27T08:00:20.846Z,3.15
2019-03-27T08:01:20.759Z,3.18
2019-03-27T08:02:20.865Z,3.29
2019-03-27T08:03:20.749Z,3.23
2019-03-27T08:04:20.965Z,3.28
2019-03-27T08:05:20.756Z,3.21
2019-03-27T08:06:20.817Z,3.2
2019-03-27T08:07:27.499Z,3.25
2019-03-27T08:08:20.945Z,3.31
2019-03-27T08:09:23.345Z,3.34
2019-03-27T08:10:20.759Z,3.29
2019-03-27T08:11:21.412Z,3.25
2019-03-27T08:12:20.769Z,3.38
2019-03-27T08:13:20.804Z,3.34
2019-03-27T08:14:20.761Z,3.33
2019-03-27T08:15:20.810Z,3.37
2019-03-27T08:16:20.833Z,3.36
2019-03-27T08:17:20.853Z,3.37
2019-03-27T08:18:20.788Z,3.46
2019-03-27T08:19:20.790Z,3.53
2019-03-27T08:20:20.791Z,3.52
2019-03-27T08:21:20.754Z,3.57
2019-03-27T08:22:20.795Z,3.45
2019-03-27T08:23:20.793Z,3.3
2019-03-27T08:24:20.770Z,3.34
2019-03-27T08:25:20.752Z,3.37
2019-03-27T08:26:20.992Z,3.49
2019-03-27T08:27:20.738Z,3.45
2019-03-27T08:28:20.769Z,3.42
2019-03-27T08:29:20.730Z,3.42
2019-03-27T08:30:20.791Z,3.37
2019-03-27T08:31:20.795Z,3.45
2019-03-27T08:32:20.719Z,3.38
2019-03-27T08:33:20.741Z,3.48
2019-03-27T08:34:20.890Z,3.49
2019-03-27T08:35:20.732Z,3.53
2019-03-27T08:36:20.729Z,3.52
2019-03-27T08:37:20.773Z,3.59
2019-03-27T08:38:20.774Z,3.49
2019-03-27T08:39:20.795Z,3.63
2019-03-27T08:40:20.729Z,3.73
2019-03-27T08:41:20.707Z,3.74
2019-03-27T08:42:20.710Z,3.6
2019-03-27T08:43:25.893Z,3.48
2019-03-27T08:44:20.769Z,3.67
2019-03-27T08:45:20.725Z,3.52
2019-03-27T08:46:20.742Z,3.47
2019-03-27T08:47:20.813Z,3.48
2019-03-27T08:48:20.768Z,3.6
2019-03-27T08:49:22.922Z,3.59
2019-03-27T08:50:20.815Z,3.53
2019-03-27T08:51:20.781Z,3.52
2019-03-27T08:52:20.723Z,3.38
2019-03-27T08:53:20.742Z,3.53
2019-03-27T08:54:20.746Z,3.67
2019-03-27T08:55:20.764Z,3.59
2019-03-27T08:56:20.687Z,3.63
2019-03-27T08:57:20.715Z,3.67
2019-03-27T08:58:20.679Z,3.64
2019-03-27T08:59:20.675Z,3.57
2019-03-27T09:00:21.700Z,3.41
2019-03-27T09:01:20.741Z,3.45
2019-03-27T09:02:20.741Z,3.6
2019-03-27T09:03:20.919Z,3.76
2019-03-27T09:04:20.674Z,3.58
2019-03-27T09:05:20.642Z,3.6
2019-03-27T09:06:34.488Z,3.52
2019-03-27T09:07:20.699Z,3.49
2019-03-27T09:08:20.685Z,3.47
2019-03-27T09:09:20.667Z,3.6
2019-03-27T09:10:20.652Z,3.68
2019-03-27T09:11:20.771Z,3.58
2019-03-27T09:12:20.679Z,3.7
2019-03-27T09:13:20.722Z,3.78
2019-03-27T09:14:20.695Z,3.65
2019-03-27T09:15:20.705Z,3.83
2019-03-27T09:16:20.684Z,3.48
2019-03-27T09:17:20.733Z,3.42
2019-03-27T09:18:20.736Z,3.46
2019-03-27T09:19:36.584Z,3.29
2019-03-27T09:20:20.640Z,3.17
2019-03-27T09:21:20.702Z,3.16
2019-03-27T09:22:21.647Z,3.44
2019-03-27T09:23:20.723Z,3.38
2019-03-27T09:24:20.671Z,3.25
2019-03-27T09:25:20.673Z,3.36
2019-03-27T09:26:20.819Z,3.5
2019-03-27T09:27:20.774Z,3.51
2019-03-27T09:28:20.652Z,3.67
2019-03-27T09:29:20.639Z,3.7
2019-03-27T09:30:20.995Z,3.61
2019-03-27T09:31:20.683Z,3.49
2019-03-27T09:32:20.688Z,3.71
2019-03-27T09:33:20.660Z,3.64
2019-03-27T09:34:20.640Z,3.61
2019-03-27T09:35:20.630Z,3.55
2019-03-27T09:36:20.663Z,3.58
2019-03-27T09:37:20.635Z,3.63
2019-03-27T09:38:20.636Z,3.69
2019-03-27T09:39:20.667Z,3.69
2019-03-27T09:40:20.696Z,3.82
2019-03-27T09:41:21.846Z,3.66
2019-03-27T09:42:20.654Z,3.42
2019-03-27T09:43:20.620Z,3.28
2019-03-27T09:44:20.810Z,3.63
2019-03-27T09:45:20.776Z,3.56
2019-03-27T09:46:20.660Z,3.74
2019-03-27T09:47:20.635Z,3.52
2019-03-27T09:48:20.654Z,3.65
2019-03-27T09:49:20.623Z,3.79
2019-03-27T09:50:20.669Z,3.85
2019-03-27T09:51:20.667Z,3.81
2019-03-27T09:52:20.828Z,3.83
2019-03-27T09:53:20.610Z,3.77
2019-03-27T09:54:20.680Z,3.75
2019-03-27T09:55:20.695Z,3.74
2019-03-27T09:56:20.621Z,3.64
2019-03-27T09:57:20.608Z,3.49
2019-03-27T09:58:20.659Z,3.7
2019-03-27T09:59:20.640Z,3.7
2019-03-27T10:00:20.610Z,3.44
2019-03-27T10:01:20.682Z,3.38
2019-03-27T10:02:20.661Z,3.59
2019-03-27T10:03:20.605Z,3.66
2019-03-27T10:04:20.620Z,3.66
2019-03-27T10:05:20.580Z,3.4
2019-03-27T10:06:20.731Z,3.26
2019-03-27T10:07:20.599Z,3.16
2019-03-27T10:08:20.642Z,3.23
2019-03-27T10:09:20.594Z,3.19
2019-03-27T10:10:20.570Z,3.18
2019-03-27T10:11:24.137Z,3.32
2019-03-27T10:12:20.660Z,3.51
2019-03-27T10:13:20.606Z,3.78
2019-03-27T10:14:22.446Z,3.64
2019-03-27T10:15:20.584Z,3.8
2019-03-27T10:16:20.655Z,3.77
2019-03-27T10:17:20.600Z,3.49
2019-03-27T10:18:20.629Z,3.43
2019-03-27T10:19:20.598Z,3.72
2019-03-27T10:20:20.629Z,3.56
2019-03-27T10:21:20.564Z,3.49
2019-03-27T10:22:20.571Z,3.6
2019-03-27T10:23:20.605Z,3.2
2019-03-27T10:24:20.751Z,3.11
2019-03-27T10:25:20.587Z,3.42
2019-03-27T10:26:20.607Z,3.17
2019-03-27T10:27:20.567Z,3.18
2019-03-27T10:28:20.595Z,3.28
2019-03-27T10:29:20.584Z,3.34
2019-03-27T10:30:20.622Z,2.89
2019-03-27T10:31:20.547Z,2.88
2019-03-27T10:32:20.568Z,2.96
2019-03-27T10:33:20.605Z,3.14
2019-03-27T10:34:20.538Z,3.08
2019-03-27T10:35:20.675Z,3.15
2019-03-27T10:36:20.624Z,3.21
2019-03-27T10:37:20.542Z,3.36
2019-03-27T10:38:20.569Z,3.12
2019-03-27T10:39:20.569Z,3.26
2019-03-27T10:40:20.582Z,3.3
2019-03-27T10:41:20.525Z,3.22
2019-03-27T10:42:20.563Z,3.29
2019-03-27T10:43:20.614Z,3.26
2019-03-27T10:44:20.661Z,3.25
2019-03-27T10:45:20.531Z,3.28
2019-03-27T10:46:20.518Z,3.2
2019-03-27T10:47:20.575Z,3.29
2019-03-27T10:48:20.587Z,3.35
2019-03-27T10:49:21.009Z,3.39
2019-03-27T10:50:20.619Z,3.29
2019-03-27T10:51:20.588Z,3.18
2019-03-27T10:52:20.531Z,3.18
2019-03-27T10:53:20.520Z,3.01
2019-03-27T10:54:20.622Z,3.11
2019-03-27T10:55:20.547Z,3.13
2019-03-27T10:56:21.430Z,3.13
2019-03-27T10:57:20.568Z,3.19
2019-03-27T10:58:20.556Z,3.16
2019-03-27T10:59:20.554Z,2.88
2019-03-27T11:00:20.487Z,2.75
2019-03-27T11:01:20.542Z,2.67
2019-03-27T11:02:20.539Z,2.84
2019-03-27T11:03:20.529Z,2.67
2019-03-27T11:04:20.549Z,2.76
2019-03-27T11:05:20.635Z,2.89
2019-03-27T11:06:20.532Z,3.05
2019-03-27T11:07:20.678Z,2.95
2019-03-27T11:08:20.502Z,2.85
2019-03-27T11:09:20.492Z,2.75
2019-03-27T11:11:20.515Z,2.81
2019-03-27T11:12:20.515Z,3.01
2019-03-27T11:13:20.489Z,3.02
2019-03-27T11:14:20.576Z,3.09
2019-03-27T11:15:20.561Z,3.01
2019-03-27T11:16:20.516Z,3.24
2019-03-27T11:17:20.539Z,3.05
2019-03-27T11:18:20.870Z,3.02
2019-03-27T11:19:21.112Z,3.1
2019-03-27T11:20:31.876Z,3.2
2019-03-27T11:21:20.494Z,3.34
2019-03-27T11:22:20.500Z,3.44
2019-03-27T11:23:20.515Z,3.45
2019-03-27T11:24:20.552Z,3.45
2019-03-27T11:25:20.497Z,3.23
2019-03-27T11:26:20.508Z,3.35
2019-03-27T11:27:20.469Z,3.48
2019-03-27T11:28:20.509Z,3.31
2019-03-27T11:29:20.550Z,3.24
2019-03-27T11:30:20.509Z,3.27
2019-03-27T11:31:20.818Z,3.44
2019-03-27T11:32:20.510Z,3.26
2019-03-27T11:33:20.501Z,3.31
2019-03-27T11:35:20.478Z,3.33
2019-03-27T11:36:20.520Z,3.38
2019-03-27T11:37:20.453Z,3.25
2019-03-27T11:38:20.724Z,3.13
2019-03-27T11:39:20.609Z,3.21
2019-03-27T11:40:20.491Z,3.32
2019-03-27T11:41:20.507Z,3.37
2019-03-27T11:42:20.493Z,3.39
2019-03-27T11:43:20.482Z,3.28
2019-03-27T11:44:20.442Z,3.27
2019-03-27T11:45:20.513Z,3.17
2019-03-27T11:46:20.471Z,3.11
2019-03-27T11:47:20.457Z,3.28
2019-03-27T11:48:20.452Z,3.32
2019-03-27T11:49:20.482Z,3.45
2019-03-27T11:50:20.547Z,3.47
2019-03-27T11:51:20.490Z,3.31
2019-03-27T11:52:20.521Z,3.2
2019-03-27T11:53:20.433Z,3.08
2019-03-27T11:54:20.489Z,3.35
2019-03-27T11:55:20.447Z,3.56
2019-03-27T11:56:20.448Z,3.93
2019-03-27T11:57:20.495Z,3.9
2019-03-27T11:58:20.501Z,3.54
2019-03-27T11:59:21.012Z,3.71
2019-03-27T12:00:20.507Z,3.8
2019-03-27T12:01:20.464Z,3.29
2019-03-27T12:02:20.444Z,3.4
2019-03-27T12:03:20.455Z,3.23
2019-03-27T12:04:20.534Z,3.67
2019-03-27T12:05:20.568Z,3.49
2019-03-27T12:06:20.490Z,2.88
2019-03-27T12:07:20.451Z,2.84
2019-03-27T12:08:20.474Z,2.9
2019-03-27T12:09:20.401Z,3.28
2019-03-27T12:10:20.435Z,3.29
2019-03-27T12:11:20.459Z,3.38
2019-03-27T12:12:21.848Z,3.17
2019-03-27T12:13:20.410Z,3.19
2019-03-27T12:14:20.406Z,2.9
2019-03-27T12:15:20.489Z,3.27
2019-03-27T12:16:20.380Z,3.45
2019-03-27T12:17:20.421Z,3.65
2019-03-27T12:18:20.428Z,3.71
2019-03-27T12:19:20.635Z,3.7
2019-03-27T12:20:20.525Z,3.71
2019-03-27T12:21:20.453Z,3.18
2019-03-27T12:22:20.417Z,3.01
2019-03-27T12:23:20.434Z,2.19
2019-03-27T12:24:20.412Z,2.29
2019-03-27T12:25:21.861Z,2.13
2019-03-27T12:26:20.458Z,2.16
2019-03-27T12:27:20.441Z,1.91
2019-03-27T12:28:20.521Z,1.91
2019-03-27T12:29:20.437Z,2.26
2019-03-27T12:30:20.381Z,2.35
2019-03-27T12:31:20.428Z,2.2
2019-03-27T12:32:20.483Z,2.24
2019-03-27T12:33:20.393Z,2.34
2019-03-27T12:34:20.433Z,2.43
2019-03-27T12:35:20.397Z,2.55
2019-03-27T12:36:20.421Z,2.59
2019-03-27T12:37:20.434Z,2.5
2019-03-27T12:38:20.427Z,2.38
2019-03-27T12:39:20.547Z,2.29
2019-03-27T12:40:20.364Z,2.39
2019-03-27T12:41:20.428Z,2.41
2019-03-27T12:42:21.074Z,2.36
2019-03-27T12:43:20.386Z,2.12
2019-03-27T12:44:20.365Z,2.12
2019-03-27T12:45:20.415Z,1.88
2019-03-27T12:46:20.397Z,1.84
2019-03-27T12:47:20.426Z,2.03
2019-03-27T12:48:20.760Z,2.17
2019-03-27T12:49:20.383Z,2.25
2019-03-27T12:50:20.380Z,2.61
2019-03-27T12:51:20.399Z,2.64
2019-03-27T12:52:20.495Z,2.65
2019-03-27T12:53:20.407Z,2.46
2019-03-27T12:54:20.379Z,2.51
2019-03-27T12:55:20.389Z,2.26
2019-03-27T12:56:20.356Z,2.28
2019-03-27T12:57:20.387Z,2.41
2019-03-27T12:58:21.110Z,2.6
2019-03-27T12:59:20.357Z,2.83
2019-03-27T13:00:20.330Z,2.66
2019-03-27T13:01:20.355Z,2.35
2019-03-27T13:02:20.414Z,2.51
2019-03-27T13:03:20.369Z,2.54
2019-03-27T13:04:20.629Z,2.48
2019-03-27T13:05:20.478Z,2.52
2019-03-27T13:06:20.426Z,2.43
2019-03-27T13:07:20.353Z,2.39
2019-03-27T13:08:20.376Z,2.45
2019-03-27T13:09:20.415Z,2.42
2019-03-27T13:10:20.374Z,2.34
2019-03-27T13:11:20.428Z,2.41
2019-03-27T13:12:20.455Z,2.7
2019-03-27T13:13:20.384Z,2.37
2019-03-27T13:14:20.324Z,2.36
2019-03-27T13:15:20.349Z,2.29
2019-03-27T13:16:20.373Z,2.53
2019-03-27T13:17:20.309Z,2.58
2019-03-27T13:18:20.404Z,2.68
2019-03-27T13:19:20.385Z,2.77
2019-03-27T13:20:20.343Z,2.41
2019-03-27T13:21:27.246Z,2.42
2019-03-27T13:22:20.409Z,2.5